createdAt,value
2023-12-09T00:02:16.384Z,27.98
2023-12-09T00:07:19.300Z,37.47
2023-12-09T00:12:21.341Z,36.17
2023-12-09T00:17:23.362Z,27.50
2023-12-09T00:22:25.563Z,24.05
2023-12-09T00:27:27.767Z,27.15
2023-12-09T00:32:30.194Z,31.88
2023-12-09T00:37:32.563Z,28.00
2023-12-09T00:42:34.695Z,18.80
2023-12-09T00:47:36.777Z,9.73
2023-12-09T00:52:39.022Z,17.73
2023-12-09T00:57:41.073Z,14.15
2023-12-09T01:02:43.126Z,15.75
2023-12-09T01:07:45.230Z,15.27
2023-12-09T01:12:47.274Z,9.80
2023-12-09T01:17:49.388Z,4.22
2023-12-09T01:22:51.418Z,8.40
2023-12-09T01:27:53.780Z,6.95
2023-12-09T01:32:56.037Z,7.82
2023-12-09T01:37:58.450Z,4.10
2023-12-09T01:43:00.461Z,4.45
2023-12-09T01:48:03.221Z,3.83
2023-12-09T01:53:06.338Z,2.90
2023-12-09T01:58:09.661Z,1.40
2023-12-09T02:03:11.843Z,1.33
2023-12-09T02:08:13.899Z,2.45
2023-12-09T02:13:24.441Z,1.95
2023-12-09T02:18:26.818Z,2.72
2023-12-09T02:23:28.878Z,2.60
2023-12-09T02:28:32.807Z,0.88
2023-12-09T02:33:35.486Z,0.82
2023-12-09T02:38:38.905Z,1.55
2023-12-09T02:43:43.955Z,0.52
2023-12-09T02:48:46.057Z,0.65
2023-12-09T02:53:48.686Z,0.77
2023-12-09T02:58:50.615Z,0.17
2023-12-09T03:03:52.788Z,0.00
2023-12-09T03:08:54.854Z,0.00
2023-12-09T03:13:56.879Z,0.00
2023-12-09T03:18:58.921Z,0.05
2023-12-09T03:24:01.010Z,0.00
2023-12-09T03:29:03.025Z,2.25
2023-12-09T03:34:05.142Z,0.00
2023-12-09T03:39:07.822Z,0.10
2023-12-09T03:44:09.819Z,0.10
2023-12-09T03:49:12.047Z,0.20
2023-12-09T03:54:14.159Z,1.95
2023-12-09T03:59:16.755Z,0.13
2023-12-09T04:04:20.064Z,0.10
2023-12-09T04:09:46.455Z,0.93
2023-12-09T04:14:48.484Z,0.10
2023-12-09T04:19:53.149Z,0.20
2023-12-09T04:24:56.849Z,0.00
2023-12-09T04:29:59.427Z,0.00
2023-12-09T04:35:01.627Z,0.30
2023-12-09T04:40:16.484Z,2.65
2023-12-09T04:45:19.955Z,4.90
2023-12-09T04:50:22.522Z,6.85
2023-12-09T04:55:25.384Z,3.42
2023-12-09T05:00:28.217Z,4.88
2023-12-09T05:05:30.326Z,2.38
2023-12-09T05:10:32.646Z,5.38
2023-12-09T05:15:41.712Z,3.78
2023-12-09T05:20:45.486Z,3.03
2023-12-09T05:25:47.566Z,6.97
2023-12-09T05:30:49.578Z,1.90
2023-12-09T05:35:52.827Z,3.75
2023-12-09T05:40:54.850Z,6.13
2023-12-09T05:45:56.868Z,3.97
2023-12-09T05:50:58.822Z,1.98
2023-12-09T05:56:00.683Z,7.97
2023-12-09T06:01:02.660Z,3.45
2023-12-09T06:06:05.266Z,7.90
2023-12-09T06:11:07.487Z,1.92
2023-12-09T06:16:09.599Z,2.53
2023-12-09T06:21:23.042Z,3.85
2023-12-09T06:26:24.908Z,2.88
2023-12-09T06:31:26.716Z,3.20
2023-12-09T06:36:28.677Z,4.88
2023-12-09T06:41:30.668Z,2.08
2023-12-09T06:46:32.559Z,3.00
2023-12-09T06:51:34.816Z,4.80
2023-12-09T06:56:37.366Z,5.70
2023-12-09T07:01:39.267Z,5.03
2023-12-09T07:06:41.237Z,15.00
2023-12-09T07:11:43.113Z,22.38
2023-12-09T07:16:45.005Z,21.48
2023-12-09T07:21:46.801Z,25.35
2023-12-09T07:26:48.683Z,27.92
2023-12-09T07:31:50.837Z,16.38
2023-12-09T07:36:52.748Z,17.13
2023-12-09T07:41:54.800Z,24.60
2023-12-09T07:46:57.251Z,23.17
2023-12-09T07:51:59.519Z,37.75
2023-12-09T07:57:02.398Z,25.02
2023-12-09T08:02:05.393Z,25.52
2023-12-09T08:07:07.308Z,24.83
2023-12-09T08:12:09.614Z,24.42
2023-12-09T08:17:11.566Z,10.60
2023-12-09T08:22:16.316Z,12.50
2023-12-09T08:27:20.186Z,16.17
2023-12-09T08:32:22.173Z,17.33
2023-12-09T08:37:26.757Z,13.40
2023-12-09T08:42:29.027Z,21.67
2023-12-09T08:47:31.485Z,19.45
2023-12-09T08:52:35.639Z,4.53
2023-12-09T08:57:39.070Z,10.02
2023-12-09T09:02:49.879Z,7.63
2023-12-09T09:07:53.946Z,9.95
2023-12-09T09:12:55.992Z,7.18
2023-12-09T09:17:58.034Z,8.10
2023-12-09T09:23:11.736Z,9.20
2023-12-09T09:28:13.651Z,6.38
2023-12-09T09:33:16.260Z,5.43
2023-12-09T09:38:18.469Z,9.60
2023-12-09T09:43:24.500Z,5.80
2023-12-09T09:48:26.597Z,3.45
2023-12-09T09:53:37.030Z,6.80
2023-12-09T09:58:39.200Z,7.18
2023-12-09T10:03:41.364Z,8.85
2023-12-09T10:08:58.303Z,9.00
2023-12-09T10:14:01.590Z,10.10
2023-12-09T10:19:03.829Z,13.80
2023-12-09T10:24:09.782Z,9.80
2023-12-09T10:29:21.048Z,7.03
2023-12-09T10:34:23.349Z,9.07
2023-12-09T10:45:25.770Z,2.33
2023-12-09T10:50:37.370Z,4.40
2023-12-09T10:55:57.096Z,4.03
2023-12-09T11:01:02.743Z,1.08
2023-12-09T11:06:32.229Z,4.97
2023-12-09T11:11:38.242Z,11.40
2023-12-09T11:16:43.860Z,19.48
2023-12-09T11:21:47.320Z,22.65
2023-12-09T11:26:49.501Z,36.33
2023-12-09T11:31:51.847Z,45.95
2023-12-09T11:36:55.228Z,34.15
2023-12-09T11:41:57.254Z,56.22
2023-12-09T11:47:02.993Z,33.97
2023-12-09T11:52:06.070Z,28.10
2023-12-09T11:57:07.925Z,45.83
2023-12-09T12:02:09.795Z,40.88
2023-12-09T12:07:11.672Z,47.65
2023-12-09T12:12:13.641Z,44.03
2023-12-09T12:17:17.452Z,47.20
2023-12-09T12:22:20.060Z,40.00
2023-12-09T12:27:23.951Z,43.03
2023-12-09T12:32:27.319Z,46.75
2023-12-09T12:37:29.420Z,47.85
2023-12-09T12:42:32.369Z,52.35
2023-12-09T12:47:34.706Z,62.72
2023-12-09T12:52:36.642Z,58.63
2023-12-09T12:57:39.871Z,54.67
2023-12-09T13:02:41.776Z,65.35
2023-12-09T13:07:44.890Z,51.35
2023-12-09T13:12:47.198Z,53.95
2023-12-09T13:17:49.092Z,56.35
2023-12-09T13:22:51.197Z,67.30
2023-12-09T13:27:53.080Z,61.03
2023-12-09T13:32:55.393Z,69.93
2023-12-09T13:37:59.687Z,59.90
2023-12-09T13:43:02.951Z,62.53
2023-12-09T13:48:05.390Z,56.47
2023-12-09T13:53:08.420Z,62.92
2023-12-09T13:58:10.315Z,57.30
2023-12-09T14:03:12.338Z,63.90
2023-12-09T14:08:14.189Z,63.58
2023-12-09T14:13:16.372Z,47.42
2023-12-09T14:18:18.367Z,49.15
2023-12-09T14:23:21.176Z,62.03
2023-12-09T14:28:23.091Z,60.58
2023-12-09T14:33:25.411Z,52.15
2023-12-09T14:38:27.418Z,47.33
2023-12-09T14:43:29.337Z,57.35
2023-12-09T14:48:32.956Z,62.70
2023-12-09T14:53:35.087Z,54.67
2023-12-09T14:58:37.033Z,48.97
2023-12-09T15:03:39.197Z,47.85
2023-12-09T15:08:41.232Z,61.80
2023-12-09T15:13:43.126Z,60.00
2023-12-09T15:18:45.903Z,48.92
2023-12-09T15:23:47.919Z,56.80
2023-12-09T15:28:54.660Z,56.97
2023-12-09T15:33:56.726Z,45.30
2023-12-09T15:38:58.981Z,68.18
2023-12-09T15:44:00.837Z,77.63
2023-12-09T15:49:03.441Z,65.90
2023-12-09T15:54:08.937Z,60.20
2023-12-09T15:59:12.146Z,87.03
2023-12-09T16:04:14.509Z,63.63
2023-12-09T16:09:16.544Z,60.72
2023-12-09T16:14:18.668Z,29.23
2023-12-09T16:19:20.605Z,40.78
2023-12-09T16:24:28.241Z,33.58
2023-12-09T16:29:30.433Z,24.20
2023-12-09T16:34:32.450Z,31.77
2023-12-09T16:39:34.553Z,26.15
2023-12-09T16:44:36.505Z,18.20
2023-12-09T16:49:38.952Z,49.30
2023-12-09T16:54:41.471Z,34.30
2023-12-09T16:59:43.410Z,40.22
2023-12-09T17:04:46.012Z,40.63
2023-12-09T17:09:47.992Z,47.40
2023-12-09T17:14:49.957Z,43.35
2023-12-09T17:19:52.853Z,35.70
2023-12-09T17:24:54.787Z,33.67
2023-12-09T17:29:56.650Z,33.33
2023-12-09T17:34:58.583Z,26.30
2023-12-09T17:40:01.925Z,38.53
2023-12-09T17:45:04.071Z,31.23
2023-12-09T17:50:06.768Z,24.65
2023-12-09T17:55:08.712Z,26.90
2023-12-09T18:00:12.708Z,22.92
2023-12-09T18:05:14.881Z,33.20
2023-12-09T18:10:18.679Z,35.15
2023-12-09T18:15:20.968Z,53.95
2023-12-09T18:20:22.922Z,34.00
2023-12-09T18:25:26.974Z,28.20
2023-12-09T18:30:28.888Z,33.13
2023-12-09T18:35:30.781Z,36.50
2023-12-09T18:40:32.704Z,29.48
2023-12-09T18:45:36.680Z,45.47
2023-12-09T18:50:38.728Z,45.00
2023-12-09T18:55:40.729Z,33.25
2023-12-09T19:00:43.446Z,39.13
2023-12-09T19:05:47.229Z,40.10
2023-12-09T19:10:49.132Z,39.22
2023-12-09T19:15:51.208Z,26.88
2023-12-09T19:20:53.096Z,31.52
2023-12-09T19:25:54.924Z,38.88
2023-12-09T19:30:57.028Z,46.80
2023-12-09T19:35:59.692Z,35.88
2023-12-09T19:41:01.598Z,37.55
2023-12-09T19:46:03.509Z,34.45
2023-12-09T19:51:05.776Z,39.28
2023-12-09T19:56:09.009Z,46.33
2023-12-09T20:01:11.014Z,36.85
2023-12-09T20:06:13.125Z,34.75
2023-12-09T20:11:16.830Z,43.00
2023-12-09T20:16:18.771Z,41.20
2023-12-09T20:21:20.738Z,35.47
2023-12-09T20:26:22.735Z,45.42
2023-12-09T20:31:25.430Z,42.20
2023-12-09T20:36:27.723Z,37.53
2023-12-09T20:41:29.715Z,37.10
2023-12-09T20:46:31.581Z,22.27
2023-12-09T20:51:33.693Z,40.33
2023-12-09T20:56:35.828Z,41.70
2023-12-09T21:01:48.564Z,41.22
2023-12-09T21:06:50.605Z,35.35
2023-12-09T21:11:53.815Z,54.03
2023-12-09T21:16:56.841Z,40.97
2023-12-09T21:21:58.677Z,44.95
2023-12-09T21:27:00.763Z,39.65
2023-12-09T21:32:02.670Z,47.15
2023-12-09T21:37:04.695Z,53.38
2023-12-09T21:42:09.069Z,45.70
2023-12-09T21:47:11.159Z,50.40
2023-12-09T21:52:13.943Z,51.05
2023-12-09T21:57:16.278Z,39.83
2023-12-09T22:02:18.133Z,40.63
2023-12-09T22:07:19.972Z,44.67
2023-12-09T22:12:21.926Z,46.25
2023-12-09T22:17:23.844Z,48.03
2023-12-09T22:22:27.884Z,46.05
2023-12-09T22:27:30.161Z,46.40
2023-12-09T22:32:32.486Z,56.63
2023-12-09T22:37:34.735Z,44.38
2023-12-09T22:42:37.535Z,40.13
2023-12-09T22:47:39.575Z,48.67
2023-12-09T22:52:41.675Z,45.70
2023-12-09T22:57:43.568Z,48.78
2023-12-09T23:02:45.458Z,49.75
2023-12-09T23:07:47.496Z,57.17
2023-12-09T23:12:49.468Z,66.95
2023-12-09T23:17:51.572Z,47.72
2023-12-09T23:22:53.557Z,56.70
2023-12-09T23:27:56.174Z,55.70
2023-12-09T23:32:58.136Z,60.30
2023-12-09T23:38:00.910Z,71.65
2023-12-09T23:43:04.713Z,83.15
2023-12-09T23:48:07.270Z,49.25
2023-12-09T23:53:09.297Z,60.55
2023-12-09T23:58:11.181Z,59.45
